sensor_id;sensor_type;location;lat;lon;timestamp;temperature;humidity
7290;DHT22;63176;52.678;13.250;2023-02-20T00:00:35;2.30;99.90
7290;DHT22;63176;52.678;13.250;2023-02-20T00:03:01;2.40;99.90
7290;DHT22;63176;52.678;13.250;2023-02-20T00:05:27;2.30;99.90
7290;DHT22;63176;52.678;13.250;2023-02-20T00:07:53;2.40;99.90
7290;DHT22;63176;52.678;13.250;2023-02-20T00:10:18;2.40;99.90
7290;DHT22;63176;52.678;13.250;2023-02-20T00:12:44;2.40;99.90
7290;DHT22;63176;52.678;13.250;2023-02-20T00:15:13;2.40;99.90
7290;DHT22;63176;52.678;13.250;2023-02-20T00:17:42;2.40;99.90
7290;DHT22;63176;52.678;13.250;2023-02-20T00:20:08;2.40;99.90
7290;DHT22;63176;52.678;13.250;2023-02-20T00:22:34;2.40;99.90
7290;DHT22;63176;52.678;13.250;2023-02-20T00:24:59;2.50;99.90
7290;DHT22;63176;52.678;13.250;2023-02-20T00:27:28;2.50;99.90
7290;DHT22;63176;52.678;13.250;2023-02-20T00:29:53;2.50;99.90
7290;DHT22;63176;52.678;13.250;2023-02-20T00:32:19;2.50;99.90
7290;DHT22;63176;52.678;13.250;2023-02-20T00:34:45;2.50;99.90
7290;DHT22;63176;52.678;13.250;2023-02-20T00:37:10;2.40;99.90
7290;DHT22;63176;52.678;13.250;2023-02-20T00:39:36;2.50;99.90
7290;DHT22;63176;52.678;13.250;2023-02-20T00:42:02;2.50;99.90
7290;DHT22;63176;52.678;13.250;2023-02-20T00:44:27;2.50;99.90
7290;DHT22;63176;52.678;13.250;2023-02-20T00:46:53;2.50;99.90
7290;DHT22;63176;52.678;13.250;2023-02-20T00:49:19;2.50;99.90
7290;DHT22;63176;52.678;13.250;2023-02-20T00:51:45;2.50;99.90
7290;DHT22;63176;52.678;13.250;2023-02-20T00:54:11;2.50;99.90
7290;DHT22;63176;52.678;13.250;2023-02-20T00:56:37;2.50;99.90
7290;DHT22;63176;52.678;13.250;2023-02-20T00:59:02;2.50;99.90
7290;DHT22;63176;52.678;13.250;2023-02-20T01:01:28;2.50;99.90
7290;DHT22;63176;52.678;13.250;2023-02-20T01:03:54;2.60;99.90
7290;DHT22;63176;52.678;13.250;2023-02-20T01:06:20;2.60;99.90
7290;DHT22;63176;52.678;13.250;2023-02-20T01:08:45;2.70;99.90
7290;DHT22;63176;52.678;13.250;2023-02-20T01:11:11;2.80;99.90
7290;DHT22;63176;52.678;13.250;2023-02-20T01:13:37;2.80;99.90
7290;DHT22;63176;52.678;13.250;2023-02-20T01:16:04;2.80;99.90
7290;DHT22;63176;52.678;13.250;2023-02-20T01:18:30;2.90;99.90
7290;DHT22;63176;52.678;13.250;2023-02-20T01:20:55;2.90;99.90
7290;DHT22;63176;52.678;13.250;2023-02-20T01:23:21;3.00;99.90
7290;DHT22;63176;52.678;13.250;2023-02-20T01:25:47;3.10;99.90
7290;DHT22;63176;52.678;13.250;2023-02-20T01:28:12;3.20;99.90
7290;DHT22;63176;52.678;13.250;2023-02-20T01:30:38;3.20;99.90
7290;DHT22;63176;52.678;13.250;2023-02-20T01:33:04;3.20;99.90
7290;DHT22;63176;52.678;13.250;2023-02-20T01:35:29;3.20;99.90
7290;DHT22;63176;52.678;13.250;2023-02-20T01:37:59;3.30;99.90
7290;DHT22;63176;52.678;13.250;2023-02-20T01:40:29;3.20;99.90
7290;DHT22;63176;52.678;13.250;2023-02-20T01:42:55;3.20;99.90
7290;DHT22;63176;52.678;13.250;2023-02-20T01:47:46;3.30;99.90
7290;DHT22;63176;52.678;13.250;2023-02-20T01:50:13;3.30;99.90
7290;DHT22;63176;52.678;13.250;2023-02-20T01:52:39;3.30;99.90
7290;DHT22;63176;52.678;13.250;2023-02-20T01:55:18;3.30;99.90
7290;DHT22;63176;52.678;13.250;2023-02-20T01:58:16;3.30;99.90
7290;DHT22;63176;52.678;13.250;2023-02-20T02:00:44;3.30;99.90
7290;DHT22;63176;52.678;13.250;2023-02-20T02:03:12;3.30;99.90
7290;DHT22;63176;52.678;13.250;2023-02-20T02:05:46;3.30;99.90
7290;DHT22;63176;52.678;13.250;2023-02-20T02:08:15;3.30;99.90
7290;DHT22;63176;52.678;13.250;2023-02-20T02:13:29;3.30;99.90
7290;DHT22;63176;52.678;13.250;2023-02-20T02:39:31;3.70;99.90
7290;DHT22;63176;52.678;13.250;2023-02-20T02:44:35;3.70;99.90
7290;DHT22;63176;52.678;13.250;2023-02-20T02:47:07;3.70;99.90
7290;DHT22;63176;52.678;13.250;2023-02-20T02:49:42;3.80;99.90
7290;DHT22;63176;52.678;13.250;2023-02-20T02:52:11;3.90;99.90
7290;DHT22;63176;52.678;13.250;2023-02-20T02:54:57;3.90;99.90
7290;DHT22;63176;52.678;13.250;2023-02-20T02:57:25;4.00;99.90
7290;DHT22;63176;52.678;13.250;2023-02-20T03:00:00;4.10;99.90
7290;DHT22;63176;52.678;13.250;2023-02-20T03:02:32;4.10;99.90
7290;DHT22;63176;52.678;13.250;2023-02-20T03:05:00;4.10;99.90
7290;DHT22;63176;52.678;13.250;2023-02-20T03:07:30;4.10;99.90
7290;DHT22;63176;52.678;13.250;2023-02-20T03:10:03;4.10;99.90
7290;DHT22;63176;52.678;13.250;2023-02-20T03:12:31;4.10;99.90
7290;DHT22;63176;52.678;13.250;2023-02-20T03:14:58;4.10;99.90
7290;DHT22;63176;52.678;13.250;2023-02-20T03:18:23;4.10;99.90
7290;DHT22;63176;52.678;13.250;2023-02-20T03:20:57;4.20;99.90
7290;DHT22;63176;52.678;13.250;2023-02-20T03:23:27;4.20;99.90
7290;DHT22;63176;52.678;13.250;2023-02-20T03:26:06;4.20;99.90
7290;DHT22;63176;52.678;13.250;2023-02-20T03:28:43;4.30;99.90
7290;DHT22;63176;52.678;13.250;2023-02-20T03:31:20;4.30;99.90
7290;DHT22;63176;52.678;13.250;2023-02-20T03:34:08;4.30;99.90
7290;DHT22;63176;52.678;13.250;2023-02-20T03:37:06;4.30;99.90
7290;DHT22;63176;52.678;13.250;2023-02-20T03:39:58;4.30;99.90
7290;DHT22;63176;52.678;13.250;2023-02-20T03:42:46;4.40;99.90
7290;DHT22;63176;52.678;13.250;2023-02-20T03:45:32;4.40;99.90
7290;DHT22;63176;52.678;13.250;2023-02-20T03:48:04;4.40;99.90
7290;DHT22;63176;52.678;13.250;2023-02-20T03:50:32;4.40;99.90
7290;DHT22;63176;52.678;13.250;2023-02-20T03:52:58;4.40;99.90
7290;DHT22;63176;52.678;13.250;2023-02-20T03:55:24;4.40;99.90
7290;DHT22;63176;52.678;13.250;2023-02-20T03:57:53;4.50;99.90
7290;DHT22;63176;52.678;13.250;2023-02-20T04:00:24;4.50;99.90
7290;DHT22;63176;52.678;13.250;2023-02-20T04:02:54;4.60;99.90
7290;DHT22;63176;52.678;13.250;2023-02-20T04:05:34;4.60;99.90
7290;DHT22;63176;52.678;13.250;2023-02-20T04:08:07;4.60;99.90
7290;DHT22;63176;52.678;13.250;2023-02-20T04:10:40;4.70;99.90
7290;DHT22;63176;52.678;13.250;2023-02-20T04:13:08;4.70;99.90
7290;DHT22;63176;52.678;13.250;2023-02-20T04:15:34;4.80;99.90
7290;DHT22;63176;52.678;13.250;2023-02-20T04:18:19;4.80;99.90
7290;DHT22;63176;52.678;13.250;2023-02-20T04:20:51;4.80;99.90
7290;DHT22;63176;52.678;13.250;2023-02-20T04:23:20;4.80;99.90
7290;DHT22;63176;52.678;13.250;2023-02-20T04:25:58;4.90;99.90
7290;DHT22;63176;52.678;13.250;2023-02-20T04:28:25;4.90;99.90
7290;DHT22;63176;52.678;13.250;2023-02-20T04:30:52;4.90;99.90
7290;DHT22;63176;52.678;13.250;2023-02-20T04:33:19;4.90;99.90
7290;DHT22;63176;52.678;13.250;2023-02-20T04:35:45;4.90;99.90
7290;DHT22;63176;52.678;13.250;2023-02-20T04:38:12;5.00;99.90
7290;DHT22;63176;52.678;13.250;2023-02-20T04:40:38;5.00;99.90
7290;DHT22;63176;52.678;13.250;2023-02-20T04:43:04;5.00;99.90
7290;DHT22;63176;52.678;13.250;2023-02-20T04:45:30;5.00;99.90
7290;DHT22;63176;52.678;13.250;2023-02-20T04:47:56;5.00;99.90
7290;DHT22;63176;52.678;13.250;2023-02-20T04:50:30;5.00;99.90
7290;DHT22;63176;52.678;13.250;2023-02-20T04:52:57;5.10;99.90
7290;DHT22;63176;52.678;13.250;2023-02-20T04:55:22;5.10;99.90
7290;DHT22;63176;52.678;13.250;2023-02-20T04:57:49;5.10;99.90
7290;DHT22;63176;52.678;13.250;2023-02-20T05:00:16;5.10;99.90
7290;DHT22;63176;52.678;13.250;2023-02-20T05:02:42;5.20;99.90
7290;DHT22;63176;52.678;13.250;2023-02-20T05:05:21;5.20;99.90
7290;DHT22;63176;52.678;13.250;2023-02-20T05:07:47;5.30;99.90
7290;DHT22;63176;52.678;13.250;2023-02-20T05:10:19;5.30;99.90
7290;DHT22;63176;52.678;13.250;2023-02-20T05:12:45;5.30;99.90
7290;DHT22;63176;52.678;13.250;2023-02-20T05:15:12;5.30;99.90
7290;DHT22;63176;52.678;13.250;2023-02-20T05:17:37;5.30;99.90
7290;DHT22;63176;52.678;13.250;2023-02-20T05:20:04;5.30;99.90
7290;DHT22;63176;52.678;13.250;2023-02-20T05:22:30;5.30;99.90
7290;DHT22;63176;52.678;13.250;2023-02-20T05:24:56;5.30;99.90
7290;DHT22;63176;52.678;13.250;2023-02-20T05:27:22;5.40;99.90
7290;DHT22;63176;52.678;13.250;2023-02-20T05:29:51;5.40;99.90
7290;DHT22;63176;52.678;13.250;2023-02-20T05:32:18;5.30;99.90
7290;DHT22;63176;52.678;13.250;2023-02-20T05:34:44;5.40;99.90
7290;DHT22;63176;52.678;13.250;2023-02-20T05:37:11;5.40;99.90
7290;DHT22;63176;52.678;13.250;2023-02-20T05:39:37;5.30;99.90
7290;DHT22;63176;52.678;13.250;2023-02-20T05:42:04;5.30;99.90
7290;DHT22;63176;52.678;13.250;2023-02-20T05:44:29;5.30;99.90
7290;DHT22;63176;52.678;13.250;2023-02-20T05:46:55;5.30;99.90
7290;DHT22;63176;52.678;13.250;2023-02-20T05:49:21;5.30;99.90
7290;DHT22;63176;52.678;13.250;2023-02-20T05:51:47;5.30;99.90
7290;DHT22;63176;52.678;13.250;2023-02-20T05:54:16;5.30;99.90
7290;DHT22;63176;52.678;13.250;2023-02-20T05:56:43;5.30;99.90
7290;DHT22;63176;52.678;13.250;2023-02-20T05:59:09;5.30;99.90
7290;DHT22;63176;52.678;13.250;2023-02-20T06:01:35;5.30;99.90
7290;DHT22;63176;52.678;13.250;2023-02-20T06:04:01;5.30;99.90
7290;DHT22;63176;52.678;13.250;2023-02-20T06:06:38;5.30;99.90
7290;DHT22;63176;52.678;13.250;2023-02-20T06:09:06;5.30;99.90
7290;DHT22;63176;52.678;13.250;2023-02-20T06:11:33;5.40;99.90
7290;DHT22;63176;52.678;13.250;2023-02-20T06:13:59;5.40;99.90
7290;DHT22;63176;52.678;13.250;2023-02-20T06:16:27;5.40;99.90
7290;DHT22;63176;52.678;13.250;2023-02-20T06:18:54;5.40;99.90
7290;DHT22;63176;52.678;13.250;2023-02-20T06:21:20;5.40;99.90
7290;DHT22;63176;52.678;13.250;2023-02-20T06:23:48;5.40;99.90
7290;DHT22;63176;52.678;13.250;2023-02-20T06:26:15;5.50;99.90
7290;DHT22;63176;52.678;13.250;2023-02-20T06:28:41;5.50;99.90
7290;DHT22;63176;52.678;13.250;2023-02-20T06:31:08;5.50;99.90
7290;DHT22;63176;52.678;13.250;2023-02-20T06:33:35;5.50;99.90
7290;DHT22;63176;52.678;13.250;2023-02-20T06:36:01;5.50;99.90
7290;DHT22;63176;52.678;13.250;2023-02-20T06:38:27;5.60;99.90
7290;DHT22;63176;52.678;13.250;2023-02-20T06:40:52;5.60;99.90
7290;DHT22;63176;52.678;13.250;2023-02-20T06:43:19;5.60;99.90
7290;DHT22;63176;52.678;13.250;2023-02-20T06:45:45;5.60;99.90
7290;DHT22;63176;52.678;13.250;2023-02-20T06:48:11;5.60;99.90
7290;DHT22;63176;52.678;13.250;2023-02-20T06:50:39;5.60;99.90
7290;DHT22;63176;52.678;13.250;2023-02-20T06:53:05;5.60;99.90
7290;DHT22;63176;52.678;13.250;2023-02-20T06:55:31;5.60;99.90
7290;DHT22;63176;52.678;13.250;2023-02-20T06:57:57;5.60;99.90
7290;DHT22;63176;52.678;13.250;2023-02-20T07:00:23;5.60;99.90
7290;DHT22;63176;52.678;13.250;2023-02-20T07:02:49;5.60;99.90
7290;DHT22;63176;52.678;13.250;2023-02-20T07:05:14;5.60;99.90
7290;DHT22;63176;52.678;13.250;2023-02-20T07:07:40;5.70;99.90
7290;DHT22;63176;52.678;13.250;2023-02-20T07:10:06;5.70;99.90
7290;DHT22;63176;52.678;13.250;2023-02-20T07:12:32;5.70;99.90
7290;DHT22;63176;52.678;13.250;2023-02-20T07:14:59;5.70;99.90
7290;DHT22;63176;52.678;13.250;2023-02-20T07:17:24;5.80;99.90
7290;DHT22;63176;52.678;13.250;2023-02-20T07:19:50;5.80;99.90
7290;DHT22;63176;52.678;13.250;2023-02-20T07:22:16;5.90;99.90
7290;DHT22;63176;52.678;13.250;2023-02-20T07:24:41;5.90;99.90
7290;DHT22;63176;52.678;13.250;2023-02-20T07:27:08;5.90;99.90
7290;DHT22;63176;52.678;13.250;2023-02-20T07:29:36;6.00;99.90
7290;DHT22;63176;52.678;13.250;2023-02-20T07:32:02;6.00;99.90
7290;DHT22;63176;52.678;13.250;2023-02-20T07:34:28;6.00;99.90
7290;DHT22;63176;52.678;13.250;2023-02-20T07:36:53;6.10;99.90
7290;DHT22;63176;52.678;13.250;2023-02-20T07:39:19;6.10;99.90
7290;DHT22;63176;52.678;13.250;2023-02-20T07:41:49;6.20;99.90
7290;DHT22;63176;52.678;13.250;2023-02-20T07:44:14;6.00;99.90
7290;DHT22;63176;52.678;13.250;2023-02-20T07:46:41;6.20;99.90
7290;DHT22;63176;52.678;13.250;2023-02-20T07:49:06;6.20;99.90
7290;DHT22;63176;52.678;13.250;2023-02-20T07:51:32;6.20;99.90
7290;DHT22;63176;52.678;13.250;2023-02-20T07:53:58;6.30;99.90
7290;DHT22;63176;52.678;13.250;2023-02-20T07:56:24;6.30;99.90
7290;DHT22;63176;52.678;13.250;2023-02-20T07:58:50;6.40;99.90
7290;DHT22;63176;52.678;13.250;2023-02-20T08:01:16;6.40;99.90
7290;DHT22;63176;52.678;13.250;2023-02-20T08:03:42;6.40;99.90
7290;DHT22;63176;52.678;13.250;2023-02-20T08:06:07;6.50;99.90
7290;DHT22;63176;52.678;13.250;2023-02-20T08:08:33;6.50;99.90
7290;DHT22;63176;52.678;13.250;2023-02-20T08:10:59;6.50;99.90
7290;DHT22;63176;52.678;13.250;2023-02-20T08:13:25;6.50;99.90
7290;DHT22;63176;52.678;13.250;2023-02-20T08:15:50;6.50;99.90
7290;DHT22;63176;52.678;13.250;2023-02-20T08:18:16;6.60;99.90
7290;DHT22;63176;52.678;13.250;2023-02-20T08:20:42;6.50;99.90
7290;DHT22;63176;52.678;13.250;2023-02-20T08:23:19;6.60;99.90
7290;DHT22;63176;52.678;13.250;2023-02-20T08:25:45;6.60;99.90
7290;DHT22;63176;52.678;13.250;2023-02-20T08:28:12;6.60;99.90
7290;DHT22;63176;52.678;13.250;2023-02-20T08:30:38;6.70;99.90
7290;DHT22;63176;52.678;13.250;2023-02-20T08:33:04;6.70;99.90
7290;DHT22;63176;52.678;13.250;2023-02-20T08:35:34;6.70;99.90
7290;DHT22;63176;52.678;13.250;2023-02-20T08:38:05;6.70;99.90
7290;DHT22;63176;52.678;13.250;2023-02-20T08:40:32;6.80;99.90
7290;DHT22;63176;52.678;13.250;2023-02-20T08:42:58;6.80;99.90
7290;DHT22;63176;52.678;13.250;2023-02-20T08:45:23;6.80;99.90
7290;DHT22;63176;52.678;13.250;2023-02-20T08:47:50;6.80;99.90
7290;DHT22;63176;52.678;13.250;2023-02-20T08:50:19;6.80;99.90
7290;DHT22;63176;52.678;13.250;2023-02-20T08:52:46;6.90;99.90
7290;DHT22;63176;52.678;13.250;2023-02-20T08:55:12;6.90;99.90
7290;DHT22;63176;52.678;13.250;2023-02-20T08:57:41;6.90;99.90
7290;DHT22;63176;52.678;13.250;2023-02-20T09:00:08;7.00;99.90
7290;DHT22;63176;52.678;13.250;2023-02-20T09:02:34;7.00;99.90
7290;DHT22;63176;52.678;13.250;2023-02-20T09:04:59;7.00;99.90
7290;DHT22;63176;52.678;13.250;2023-02-20T09:07:25;7.10;99.90
7290;DHT22;63176;52.678;13.250;2023-02-20T09:09:51;7.10;99.90
7290;DHT22;63176;52.678;13.250;2023-02-20T09:12:17;7.10;99.90
7290;DHT22;63176;52.678;13.250;2023-02-20T09:14:43;7.20;99.90
7290;DHT22;63176;52.678;13.250;2023-02-20T09:17:08;7.20;99.90
7290;DHT22;63176;52.678;13.250;2023-02-20T09:19:34;7.30;99.90
7290;DHT22;63176;52.678;13.250;2023-02-20T09:22:00;7.30;99.90
7290;DHT22;63176;52.678;13.250;2023-02-20T09:24:26;7.40;99.90
7290;DHT22;63176;52.678;13.250;2023-02-20T09:26:59;7.50;99.90
7290;DHT22;63176;52.678;13.250;2023-02-20T09:29:25;7.50;99.90
7290;DHT22;63176;52.678;13.250;2023-02-20T09:31:51;7.50;99.90
7290;DHT22;63176;52.678;13.250;2023-02-20T09:34:16;7.60;99.90
7290;DHT22;63176;52.678;13.250;2023-02-20T09:36:42;7.70;99.90
7290;DHT22;63176;52.678;13.250;2023-02-20T09:39:08;7.70;99.90
7290;DHT22;63176;52.678;13.250;2023-02-20T09:47:24;7.90;99.90
7290;DHT22;63176;52.678;13.250;2023-02-20T09:49:51;7.90;99.90
7290;DHT22;63176;52.678;13.250;2023-02-20T09:52:17;7.90;99.90
7290;DHT22;63176;52.678;13.250;2023-02-20T09:54:54;7.90;99.90
7290;DHT22;63176;52.678;13.250;2023-02-20T09:57:25;8.00;99.90
7290;DHT22;63176;52.678;13.250;2023-02-20T10:02:33;8.00;99.90
7290;DHT22;63176;52.678;13.250;2023-02-20T10:05:18;8.10;99.90
7290;DHT22;63176;52.678;13.250;2023-02-20T10:07:45;8.20;99.90
7290;DHT22;63176;52.678;13.250;2023-02-20T10:10:30;8.10;99.90
7290;DHT22;63176;52.678;13.250;2023-02-20T10:23:47;8.20;99.90
7290;DHT22;63176;52.678;13.250;2023-02-20T10:26:22;8.20;99.90
7290;DHT22;63176;52.678;13.250;2023-02-20T10:28:52;8.30;99.90
7290;DHT22;63176;52.678;13.250;2023-02-20T10:31:38;8.40;99.90
7290;DHT22;63176;52.678;13.250;2023-02-20T10:34:13;8.50;99.90
7290;DHT22;63176;52.678;13.250;2023-02-20T10:36:49;8.50;99.90
7290;DHT22;63176;52.678;13.250;2023-02-20T10:39:18;8.70;99.90
7290;DHT22;63176;52.678;13.250;2023-02-20T10:42:09;8.70;99.90
7290;DHT22;63176;52.678;13.250;2023-02-20T10:44:44;8.80;99.90
7290;DHT22;63176;52.678;13.250;2023-02-20T10:47:15;8.90;99.90
7290;DHT22;63176;52.678;13.250;2023-02-20T10:49:55;9.00;99.90
7290;DHT22;63176;52.678;13.250;2023-02-20T10:52:27;9.10;99.90
7290;DHT22;63176;52.678;13.250;2023-02-20T10:55:09;9.10;99.90
7290;DHT22;63176;52.678;13.250;2023-02-20T11:00:19;9.30;99.90
7290;DHT22;63176;52.678;13.250;2023-02-20T11:02:53;9.30;99.90
7290;DHT22;63176;52.678;13.250;2023-02-20T11:05:24;9.30;99.90
7290;DHT22;63176;52.678;13.250;2023-02-20T11:07:51;9.30;99.90
7290;DHT22;63176;52.678;13.250;2023-02-20T11:10:17;9.30;99.90
7290;DHT22;63176;52.678;13.250;2023-02-20T11:12:50;9.30;99.90
7290;DHT22;63176;52.678;13.250;2023-02-20T11:15:29;9.30;99.90
7290;DHT22;63176;52.678;13.250;2023-02-20T11:17:57;9.30;99.90
7290;DHT22;63176;52.678;13.250;2023-02-20T11:23:38;9.40;99.90
7290;DHT22;63176;52.678;13.250;2023-02-20T11:28:58;9.50;99.90
7290;DHT22;63176;52.678;13.250;2023-02-20T11:31:25;9.50;99.90
7290;DHT22;63176;52.678;13.250;2023-02-20T11:33:53;9.50;99.90
7290;DHT22;63176;52.678;13.250;2023-02-20T11:36:23;9.50;99.90
7290;DHT22;63176;52.678;13.250;2023-02-20T11:39:03;9.50;99.90
7290;DHT22;63176;52.678;13.250;2023-02-20T11:41:38;9.50;99.90
7290;DHT22;63176;52.678;13.250;2023-02-20T11:44:19;9.50;99.90
7290;DHT22;63176;52.678;13.250;2023-02-20T11:46:45;9.40;99.90
7290;DHT22;63176;52.678;13.250;2023-02-20T11:49:26;9.40;99.90
7290;DHT22;63176;52.678;13.250;2023-02-20T11:52:11;9.40;99.90
7290;DHT22;63176;52.678;13.250;2023-02-20T11:54:39;9.50;99.90
7290;DHT22;63176;52.678;13.250;2023-02-20T11:59:44;9.40;99.90
7290;DHT22;63176;52.678;13.250;2023-02-20T12:04:36;9.30;99.90
7290;DHT22;63176;52.678;13.250;2023-02-20T12:10:25;9.40;99.90
7290;DHT22;63176;52.678;13.250;2023-02-20T12:12:52;9.40;99.90
7290;DHT22;63176;52.678;13.250;2023-02-20T12:15:21;9.40;99.90
7290;DHT22;63176;52.678;13.250;2023-02-20T12:20:36;9.50;99.90
7290;DHT22;63176;52.678;13.250;2023-02-20T12:37:31;9.50;99.90
7290;DHT22;63176;52.678;13.250;2023-02-20T12:40:57;9.50;99.90
7290;DHT22;63176;52.678;13.250;2023-02-20T12:43:45;9.50;99.90
7290;DHT22;63176;52.678;13.250;2023-02-20T12:54:19;9.50;99.90
7290;DHT22;63176;52.678;13.250;2023-02-20T12:57:20;9.40;99.90
7290;DHT22;63176;52.678;13.250;2023-02-20T13:02:49;9.30;99.90
7290;DHT22;63176;52.678;13.250;2023-02-20T13:05:22;9.30;99.90
7290;DHT22;63176;52.678;13.250;2023-02-20T13:10:34;9.30;99.90
7290;DHT22;63176;52.678;13.250;2023-02-20T13:13:09;9.30;99.90
7290;DHT22;63176;52.678;13.250;2023-02-20T13:18:22;9.10;99.90
7290;DHT22;63176;52.678;13.250;2023-02-20T13:21:09;9.10;99.90
7290;DHT22;63176;52.678;13.250;2023-02-20T13:23:38;9.10;99.90
7290;DHT22;63176;52.678;13.250;2023-02-20T13:28:52;8.90;99.90
7290;DHT22;63176;52.678;13.250;2023-02-20T13:31:23;8.80;99.90
7290;DHT22;63176;52.678;13.250;2023-02-20T13:36:40;8.70;99.90
7290;DHT22;63176;52.678;13.250;2023-02-20T13:44:42;8.70;99.90
7290;DHT22;63176;52.678;13.250;2023-02-20T13:52:32;8.70;99.90
7290;DHT22;63176;52.678;13.250;2023-02-20T14:00:56;8.70;99.90
7290;DHT22;63176;52.678;13.250;2023-02-20T14:03:27;8.70;99.90
7290;DHT22;63176;52.678;13.250;2023-02-20T14:08:39;8.60;99.90
7290;DHT22;63176;52.678;13.250;2023-02-20T14:13:33;8.70;99.90
7290;DHT22;63176;52.678;13.250;2023-02-20T14:15:59;8.70;99.90
7290;DHT22;63176;52.678;13.250;2023-02-20T14:18:33;8.70;99.90
7290;DHT22;63176;52.678;13.250;2023-02-20T14:21:15;8.80;99.90
7290;DHT22;63176;52.678;13.250;2023-02-20T14:23:43;8.80;99.90
7290;DHT22;63176;52.678;13.250;2023-02-20T14:26:19;8.80;99.90
7290;DHT22;63176;52.678;13.250;2023-02-20T14:28:49;8.70;99.90
7290;DHT22;63176;52.678;13.250;2023-02-20T14:31:22;8.80;99.90
7290;DHT22;63176;52.678;13.250;2023-02-20T14:33:58;8.80;99.90
7290;DHT22;63176;52.678;13.250;2023-02-20T14:39:29;8.80;99.90
7290;DHT22;63176;52.678;13.250;2023-02-20T14:42:01;8.90;99.90
7290;DHT22;63176;52.678;13.250;2023-02-20T14:44:29;8.90;99.90
7290;DHT22;63176;52.678;13.250;2023-02-20T14:47:13;8.90;99.90
7290;DHT22;63176;52.678;13.250;2023-02-20T14:49:40;8.90;99.90
7290;DHT22;63176;52.678;13.250;2023-02-20T14:54:39;9.10;99.90
7290;DHT22;63176;52.678;13.250;2023-02-20T14:57:05;9.10;99.90
7290;DHT22;63176;52.678;13.250;2023-02-20T14:59:38;9.10;99.90
7290;DHT22;63176;52.678;13.250;2023-02-20T15:02:20;9.10;99.90
7290;DHT22;63176;52.678;13.250;2023-02-20T15:07:28;9.10;99.90
7290;DHT22;63176;52.678;13.250;2023-02-20T15:09:59;9.10;99.90
7290;DHT22;63176;52.678;13.250;2023-02-20T15:12:33;9.20;99.90
7290;DHT22;63176;52.678;13.250;2023-02-20T15:15:04;9.20;99.90
7290;DHT22;63176;52.678;13.250;2023-02-20T15:17:36;9.20;99.90
7290;DHT22;63176;52.678;13.250;2023-02-20T15:25:38;9.20;99.90
7290;DHT22;63176;52.678;13.250;2023-02-20T15:28:26;9.20;99.90
7290;DHT22;63176;52.678;13.250;2023-02-20T15:33:34;9.30;99.90
7290;DHT22;63176;52.678;13.250;2023-02-20T15:36:00;9.30;99.90
7290;DHT22;63176;52.678;13.250;2023-02-20T15:38:29;9.30;99.90
7290;DHT22;63176;52.678;13.250;2023-02-20T15:40:57;9.20;99.90
7290;DHT22;63176;52.678;13.250;2023-02-20T15:43:23;9.10;99.90
7290;DHT22;63176;52.678;13.250;2023-02-20T15:45:49;9.20;99.90
7290;DHT22;63176;52.678;13.250;2023-02-20T15:48:15;9.20;99.90
7290;DHT22;63176;52.678;13.250;2023-02-20T15:50:41;9.20;99.90
7290;DHT22;63176;52.678;13.250;2023-02-20T15:53:08;9.20;99.90
7290;DHT22;63176;52.678;13.250;2023-02-20T15:55:35;9.20;99.90
7290;DHT22;63176;52.678;13.250;2023-02-20T15:58:01;9.10;99.90
7290;DHT22;63176;52.678;13.250;2023-02-20T16:00:31;9.10;99.90
7290;DHT22;63176;52.678;13.250;2023-02-20T16:02:59;9.10;99.90
7290;DHT22;63176;52.678;13.250;2023-02-20T16:05:25;9.10;99.90
7290;DHT22;63176;52.678;13.250;2023-02-20T16:07:51;9.10;99.90
7290;DHT22;63176;52.678;13.250;2023-02-20T16:10:18;9.10;99.90
7290;DHT22;63176;52.678;13.250;2023-02-20T16:12:46;9.10;99.90
7290;DHT22;63176;52.678;13.250;2023-02-20T16:15:17;9.00;99.90
7290;DHT22;63176;52.678;13.250;2023-02-20T16:17:43;9.00;99.90
7290;DHT22;63176;52.678;13.250;2023-02-20T16:20:16;9.00;99.90
7290;DHT22;63176;52.678;13.250;2023-02-20T16:22:42;8.90;99.90
7290;DHT22;63176;52.678;13.250;2023-02-20T16:25:10;8.90;99.90
7290;DHT22;63176;52.678;13.250;2023-02-20T16:27:36;8.90;99.90
7290;DHT22;63176;52.678;13.250;2023-02-20T16:30:03;8.90;99.90
7290;DHT22;63176;52.678;13.250;2023-02-20T16:32:29;8.90;99.90
7290;DHT22;63176;52.678;13.250;2023-02-20T16:34:57;8.80;99.90
7290;DHT22;63176;52.678;13.250;2023-02-20T16:37:23;8.80;99.90
7290;DHT22;63176;52.678;13.250;2023-02-20T16:39:49;8.80;99.90
7290;DHT22;63176;52.678;13.250;2023-02-20T16:42:30;8.80;99.90
7290;DHT22;63176;52.678;13.250;2023-02-20T16:44:58;8.70;99.90
7290;DHT22;63176;52.678;13.250;2023-02-20T16:47:27;8.70;99.90
7290;DHT22;63176;52.678;13.250;2023-02-20T16:49:55;8.70;99.90
7290;DHT22;63176;52.678;13.250;2023-02-20T16:52:50;8.70;99.90
7290;DHT22;63176;52.678;13.250;2023-02-20T16:55:27;8.60;99.90
7290;DHT22;63176;52.678;13.250;2023-02-20T16:57:54;8.60;99.90
7290;DHT22;63176;52.678;13.250;2023-02-20T17:00:37;8.60;99.90
7290;DHT22;63176;52.678;13.250;2023-02-20T17:03:06;8.50;99.90
7290;DHT22;63176;52.678;13.250;2023-02-20T17:05:34;8.60;99.90
7290;DHT22;63176;52.678;13.250;2023-02-20T17:08:01;8.50;99.90
7290;DHT22;63176;52.678;13.250;2023-02-20T17:10:27;8.50;99.90
7290;DHT22;63176;52.678;13.250;2023-02-20T17:12:54;8.50;99.90
7290;DHT22;63176;52.678;13.250;2023-02-20T17:15:21;8.50;99.90
7290;DHT22;63176;52.678;13.250;2023-02-20T17:17:48;8.50;99.90
7290;DHT22;63176;52.678;13.250;2023-02-20T17:20:19;8.50;99.90
7290;DHT22;63176;52.678;13.250;2023-02-20T17:22:47;8.50;99.90
7290;DHT22;63176;52.678;13.250;2023-02-20T17:25:17;8.50;99.90
7290;DHT22;63176;52.678;13.250;2023-02-20T17:27:43;8.50;99.90
7290;DHT22;63176;52.678;13.250;2023-02-20T17:30:10;8.50;99.90
7290;DHT22;63176;52.678;13.250;2023-02-20T17:32:35;8.50;99.90
7290;DHT22;63176;52.678;13.250;2023-02-20T17:35:01;8.50;99.90
7290;DHT22;63176;52.678;13.250;2023-02-20T17:37:27;8.40;99.90
7290;DHT22;63176;52.678;13.250;2023-02-20T17:39:56;8.40;99.90
7290;DHT22;63176;52.678;13.250;2023-02-20T17:42:22;8.40;99.90
7290;DHT22;63176;52.678;13.250;2023-02-20T17:44:48;8.30;99.90
7290;DHT22;63176;52.678;13.250;2023-02-20T17:47:15;8.40;99.90
7290;DHT22;63176;52.678;13.250;2023-02-20T17:49:41;8.40;99.90
7290;DHT22;63176;52.678;13.250;2023-02-20T17:52:06;8.40;99.90
7290;DHT22;63176;52.678;13.250;2023-02-20T17:54:32;8.40;99.90
7290;DHT22;63176;52.678;13.250;2023-02-20T17:56:59;8.30;99.90
7290;DHT22;63176;52.678;13.250;2023-02-20T17:59:25;8.30;99.90
7290;DHT22;63176;52.678;13.250;2023-02-20T18:01:53;8.30;99.90
7290;DHT22;63176;52.678;13.250;2023-02-20T18:04:18;8.30;99.90
7290;DHT22;63176;52.678;13.250;2023-02-20T18:06:44;8.30;99.90
7290;DHT22;63176;52.678;13.250;2023-02-20T18:09:14;8.30;99.90
7290;DHT22;63176;52.678;13.250;2023-02-20T18:11:41;8.30;99.90
7290;DHT22;63176;52.678;13.250;2023-02-20T18:20:51;8.30;99.90
7290;DHT22;63176;52.678;13.250;2023-02-20T18:23:18;8.30;99.90
7290;DHT22;63176;52.678;13.250;2023-02-20T18:29:05;8.30;99.90
7290;DHT22;63176;52.678;13.250;2023-02-20T18:31:32;8.30;99.90
7290;DHT22;63176;52.678;13.250;2023-02-20T18:34:31;8.30;99.90